Fairmont Hot Springs, Canada
Current Conditions -  °F | °C
As of 8:00 AM on Friday 28 Nov 2014 (Local Time) from CYXC Reporting Station
Heavy Rain Heavy Rain  
Wind Chill: 36°   Ceiling: 6000
Heat Index: 43°   Visibility: 20mi
Dew Point: 37°   Wind: 13mph
Humidity: 81%   Direction: 160°SSE
Pressure: 29.36"   Gusts: 21mph
Location:  50.34°N, 115.86°W
Report Text: CYXC 281500Z 16011G18KT 20SM +RA FEW030 BKN060 BKN120 BKN160 06/03 A2936 RMK SC2SC3AC1AC1 SLP956 DENSITY ALT 3300FT
Loading
Personal Weather Stations






























Interactive Weather Map New forecast layout! Learn more

10-Day Weather Forecast

Advertisements
Track Severe Weather on mobile